X  Close Metar Aviation Weather Data     KRYV Watertown Municipal Airport
Temperature
23°F Temperature
19°F Dewpoint
86% Humidity



Wind
13 MPH
21 KM/H
6 M/S
11 KTS



360°
North
Current Conditions

Light Snow Light Snow
Pressure 1014.52 (hPa) - 29.96 (inHg)
Visibility 3.1 (mile) - 5 (km)
Airport
Airport-code KRYV

Location: Watertown Municipal Airport
Distance: 8 (mi)

Metar:
KRYV 261715Z AUTO 36011G18KT 3SM -SN SCT015 OVC025 M05/M07 A2996 RMK AO2 T10501073

Time: 26-01-2021 11:15 CST